Time,TemperatureF,DewpointF,PressureIn,WindDirection,WindDirectionDegrees,WindSpeedMPH,WindSpeedGustMPH,Humidity,HourlyPrecipIn,Conditions,Clouds,dailyrainin,SoftwareType,DateUTC
2013-02-13 00:01:00,35.6,35.1,30.15,East,90,0.0,-999.0,98,-99.99,,,0.00,Acu-Link.com,2013-02-13 08:01:00,
2013-02-13 00:16:00,35.4,34.9,30.15,SE,135,0.0,-999.0,98,-99.99,,,0.00,Acu-Link.com,2013-02-13 08:16:00,
2013-02-13 00:31:00,35.1,34.6,30.15,SSE,157,0.0,-999.0,98,-99.99,,,0.00,Acu-Link.com,2013-02-13 08:31:00,
2013-02-13 00:46:00,34.5,34.0,30.15,SSW,202,0.0,-999.0,98,-99.99,,,0.00,Acu-Link.com,2013-02-13 08:46:00,
2013-02-13 01:01:00,34.0,33.5,30.15,SSW,202,0.0,-999.0,98,-99.99,,,0.00,Acu-Link.com,2013-02-13 09:01:00,
2013-02-13 01:16:00,34.0,33.5,30.15,SSW,202,0.0,-999.0,98,-99.99,,,0.00,Acu-Link.com,2013-02-13 09:16:00,
2013-02-13 01:32:00,33.4,32.9,30.14,SSW,202,0.0,-999.0,98,-99.99,,,0.00,Acu-Link.com,2013-02-13 09:32:00,
2013-02-13 01:47:00,33.4,32.9,30.15,SSW,202,0.0,-999.0,98,-99.99,,,0.00,Acu-Link.com,2013-02-13 09:47:00,
2013-02-13 02:02:00,33.3,32.8,30.14,SSW,202,0.0,-999.0,98,-99.99,,,0.00,Acu-Link.com,2013-02-13 10:02:00,
2013-02-13 02:17:00,33.6,33.1,30.14,SW,225,0.0,-999.0,98,-99.99,,,0.00,Acu-Link.com,2013-02-13 10:17:00,
2013-02-13 02:32:00,32.7,32.2,30.13,SSW,202,0.0,-999.0,98,-99.99,,,0.00,Acu-Link.com,2013-02-13 10:32:00,
2013-02-13 02:47:00,32.7,32.2,30.13,SSW,202,0.0,-999.0,98,-99.99,,,0.00,Acu-Link.com,2013-02-13 10:47:00,
2013-02-13 03:02:00,32.5,32.0,30.14,SSW,202,0.0,-999.0,98,-99.99,,,0.00,Acu-Link.com,2013-02-13 11:02:00,
2013-02-13 03:17:00,31.8,31.3,30.13,SSW,202,0.0,-999.0,98,-99.99,,,0.00,Acu-Link.com,2013-02-13 11:17:00,
2013-02-13 03:33:00,31.5,31.0,30.13,SW,225,0.0,-999.0,98,-99.99,,,0.00,Acu-Link.com,2013-02-13 11:33:00,
2013-02-13 03:48:00,32.2,31.7,30.12,SE,135,0.0,-999.0,98,-99.99,,,0.00,Acu-Link.com,2013-02-13 11:48:00,
2013-02-13 04:03:00,31.6,31.1,30.12,South,180,0.0,-999.0,98,-99.99,,,0.00,Acu-Link.com,2013-02-13 12:03:00,
2013-02-13 04:18:00,31.1,30.6,30.13,SE,135,0.0,-999.0,98,-99.99,,,0.00,Acu-Link.com,2013-02-13 12:18:00,
2013-02-13 04:33:00,31.6,31.1,30.13,NNW,337,0.0,-999.0,98,-99.99,,,0.00,Acu-Link.com,2013-02-13 12:33:00,
2013-02-13 04:48:00,31.1,30.6,30.13,NNW,337,0.0,-999.0,98,-99.99,,,0.00,Acu-Link.com,2013-02-13 12:48:00,
2013-02-13 05:04:00,32.0,31.5,30.14,NNW,337,0.0,-999.0,98,-99.99,,,0.00,Acu-Link.com,2013-02-13 13:04:00,
2013-02-13 05:19:00,31.1,30.6,30.12,SSW,202,0.0,-999.0,98,-99.99,,,0.00,Acu-Link.com,2013-02-13 13:19:00,
2013-02-13 05:34:00,31.8,31.3,30.11,East,90,0.0,-999.0,98,-99.99,,,0.00,Acu-Link.com,2013-02-13 13:34:00,
2013-02-13 05:49:00,31.5,31.0,30.11,SSE,157,0.0,-999.0,98,-99.99,,,0.00,Acu-Link.com,2013-02-13 13:49:00,
2013-02-13 06:04:00,30.9,30.4,30.11,SE,135,0.0,-999.0,98,-99.99,,,0.00,Acu-Link.com,2013-02-13 14:04:00,
2013-02-13 06:19:00,30.7,30.2,30.11,East,90,0.0,-999.0,98,-99.99,,,0.00,Acu-Link.com,2013-02-13 14:19:00,
2013-02-13 06:34:00,30.4,29.9,30.12,SE,135,0.0,-999.0,98,-99.99,,,0.00,Acu-Link.com,2013-02-13 14:34:00,
2013-02-13 06:49:00,30.6,30.1,30.12,ENE,67,0.0,-999.0,98,-99.99,,,0.00,Acu-Link.com,2013-02-13 14:49:00,
2013-02-13 07:04:00,31.1,30.6,30.12,ENE,67,0.0,-999.0,98,-99.99,,,0.00,Acu-Link.com,2013-02-13 15:04:00,
2013-02-13 07:20:00,31.1,30.6,30.13,ENE,67,0.0,-999.0,98,-99.99,,,0.00,Acu-Link.com,2013-02-13 15:20:00,
2013-02-13 07:35:00,32.2,31.7,30.13,West,270,0.0,-999.0,98,-99.99,,,0.00,Acu-Link.com,2013-02-13 15:35:00,
2013-02-13 07:50:00,34.3,33.8,30.13,West,270,0.0,-999.0,98,-99.99,,,0.00,Acu-Link.com,2013-02-13 15:50:00,
2013-02-13 08:05:00,40.8,40.3,30.13,SW,225,0.0,-999.0,98,-99.99,,,0.00,Acu-Link.com,2013-02-13 16:05:00,
2013-02-13 08:20:00,46.9,46.4,30.14,WSW,247,0.0,-999.0,98,-99.99,,,0.00,Acu-Link.com,2013-02-13 16:20:00,
2013-02-13 08:35:00,53.1,52.5,30.16,WSW,247,0.0,-999.0,98,-99.99,,,0.00,Acu-Link.com,2013-02-13 16:35:00,
2013-02-13 08:50:00,59.2,58.6,30.14,ESE,112,0.0,-999.0,98,-99.99,,,0.00,Acu-Link.com,2013-02-13 16:50:00,
2013-02-13 09:05:00,63.3,-8.8,30.14,West,270,0.0,-999.0,5,-99.99,,,0.00,Acu-Link.com,2013-02-13 17:05:00,
2013-02-13 09:20:00,67.5,-23.8,30.14,North,0,0.0,-999.0,2,-99.99,,,0.00,Acu-Link.com,2013-02-13 17:20:00,
2013-02-13 09:35:00,72.5,-33.3,30.14,WSW,247,0.0,-999.0,1,-99.99,,,0.00,Acu-Link.com,2013-02-13 17:35:00,
2013-02-13 09:51:00,74.3,-32.2,30.14,SSE,157,0.0,-999.0,1,-99.99,,,0.00,Acu-Link.com,2013-02-13 17:51:00,
2013-02-13 10:06:00,76.6,-30.9,30.14,East,90,0.0,-999.0,1,-99.99,,,0.00,Acu-Link.com,2013-02-13 18:06:00,
2013-02-13 10:21:00,78.3,-29.9,30.14,SW,225,1.1,-999.0,1,-99.99,,,0.00,Acu-Link.com,2013-02-13 18:21:00,
2013-02-13 10:36:00,78.3,-29.9,30.12,NW,315,1.7,-999.0,1,-99.99,,,0.00,Acu-Link.com,2013-02-13 18:36:00,
2013-02-13 10:51:00,77.9,-30.1,30.12,West,270,1.7,-999.0,1,-99.99,,,0.00,Acu-Link.com,2013-02-13 18:51:00,
2013-02-13 11:06:00,78.3,-29.9,30.11,North,0,1.7,-999.0,1,-99.99,,,0.00,Acu-Link.com,2013-02-13 19:06:00,
2013-02-13 11:21:00,74.8,-31.9,30.11,West,270,2.2,-999.0,1,-99.99,,,0.00,Acu-Link.com,2013-02-13 19:21:00,
2013-02-13 11:36:00,74.7,-32.0,30.10,WSW,247,1.1,-999.0,1,-99.99,,,0.00,Acu-Link.com,2013-02-13 19:36:00,
2013-02-13 11:51:00,75.4,-31.6,30.10,WSW,247,2.7,-999.0,1,-99.99,,,0.00,Acu-Link.com,2013-02-13 19:51:00,
2013-02-13 12:07:00,72.0,-33.6,30.09,South,180,8.3,-999.0,1,-99.99,,,0.00,Acu-Link.com,2013-02-13 20:07:00,
2013-02-13 12:22:00,72.1,-33.6,30.08,SSW,202,3.2,-999.0,1,-99.99,,,0.00,Acu-Link.com,2013-02-13 20:22:00,
2013-02-13 12:37:00,72.5,-33.3,30.08,SW,225,4.7,-999.0,1,-99.99,,,0.00,Acu-Link.com,2013-02-13 20:37:00,
2013-02-13 12:52:00,71.1,-34.2,30.08,SSW,202,6.8,-999.0,1,-99.99,,,0.00,Acu-Link.com,2013-02-13 20:52:00,
2013-02-13 13:07:00,72.1,-33.6,30.07,ESE,112,5.3,-999.0,1,-99.99,,,0.00,Acu-Link.com,2013-02-13 21:07:00,
2013-02-13 13:22:00,70.9,-34.3,30.06,NNW,337,3.7,-999.0,1,-99.99,,,0.00,Acu-Link.com,2013-02-13 21:22:00,
2013-02-13 13:37:00,69.1,-35.4,30.05,SW,225,3.2,-999.0,1,-99.99,,,0.00,Acu-Link.com,2013-02-13 21:37:00,
2013-02-13 13:52:00,70.3,-34.6,30.05,West,270,6.8,-999.0,1,-99.99,,,0.00,Acu-Link.com,2013-02-13 21:52:00,
2013-02-13 14:07:00,68.5,-35.7,30.05,WSW,247,6.3,-999.0,1,-99.99,,,0.00,Acu-Link.com,2013-02-13 22:07:00,
2013-02-13 14:23:00,69.1,-35.4,30.04,West,270,6.3,-999.0,1,-99.99,,,0.00,Acu-Link.com,2013-02-13 22:23:00,
2013-02-13 14:38:00,68.5,-35.7,30.04,West,270,3.2,-999.0,1,-99.99,,,0.00,Acu-Link.com,2013-02-13 22:38:00,
2013-02-13 14:53:00,68.2,-35.9,30.03,SSW,202,4.2,-999.0,1,-99.99,,,0.00,Acu-Link.com,2013-02-13 22:53:00,
2013-02-13 15:08:00,68.4,-35.8,30.03,SSW,202,2.7,-999.0,1,-99.99,,,0.00,Acu-Link.com,2013-02-13 23:08:00,
2013-02-13 15:23:00,67.6,-36.3,30.03,SW,225,4.2,-999.0,1,-99.99,,,0.00,Acu-Link.com,2013-02-13 23:23:00,
2013-02-13 15:38:00,65.1,-37.8,30.03,WSW,247,5.3,-999.0,1,-99.99,,,0.00,Acu-Link.com,2013-02-13 23:38:00,
2013-02-13 15:53:00,65.3,-37.6,30.03,SSW,202,3.2,-999.0,1,-99.99,,,0.00,Acu-Link.com,2013-02-13 23:53:00,
2013-02-13 16:08:00,63.9,-38.5,30.04,SSW,202,5.8,-999.0,1,-99.99,,,0.00,Acu-Link.com,2013-02-14 00:08:00,
2013-02-13 16:23:00,62.4,-39.4,30.03,SW,225,4.7,-999.0,1,-99.99,,,0.00,Acu-Link.com,2013-02-14 00:23:00,
2013-02-13 16:39:00,62.1,18.1,30.03,West,270,2.2,-999.0,18,-99.99,,,0.00,Acu-Link.com,2013-02-14 00:39:00,
2013-02-13 16:54:00,60.4,-15.2,30.03,WSW,247,3.7,-999.0,4,-99.99,,,0.00,Acu-Link.com,2013-02-14 00:54:00,
2013-02-13 17:09:00,58.6,57.2,30.03,SSW,202,3.2,-999.0,95,-99.99,,,0.00,Acu-Link.com,2013-02-14 01:09:00,
2013-02-13 17:24:00,57.4,56.8,30.03,SW,225,0.0,-999.0,98,-99.99,,,0.00,Acu-Link.com,2013-02-14 01:24:00,
2013-02-13 17:39:00,55.8,55.2,30.03,WSW,247,0.0,-999.0,98,-99.99,,,0.00,Acu-Link.com,2013-02-14 01:39:00,
2013-02-13 17:54:00,53.6,53.0,30.02,West,270,0.0,-999.0,98,-99.99,,,0.00,Acu-Link.com,2013-02-14 01:54:00,
2013-02-13 18:10:00,52.2,51.7,30.03,SE,135,0.0,-999.0,98,-99.99,,,0.00,Acu-Link.com,2013-02-14 02:10:00,
2013-02-13 18:25:00,50.7,50.2,30.03,SE,135,0.0,-999.0,98,-99.99,,,0.00,Acu-Link.com,2013-02-14 02:25:00,
2013-02-13 18:40:00,49.6,49.1,30.02,ESE,112,0.0,-999.0,98,-99.99,,,0.00,Acu-Link.com,2013-02-14 02:40:00,
2013-02-13 18:55:00,48.9,48.4,30.02,SSE,157,0.0,-999.0,98,-99.99,,,0.00,Acu-Link.com,2013-02-14 02:55:00,
2013-02-13 19:10:00,47.8,47.3,30.03,SSW,202,0.0,-999.0,98,-99.99,,,0.00,Acu-Link.com,2013-02-14 03:10:00,
2013-02-13 19:25:00,46.6,46.1,30.02,SSW,202,0.0,-999.0,98,-99.99,,,0.00,Acu-Link.com,2013-02-14 03:25:00,
2013-02-13 19:40:00,45.5,45.0,30.02,SSW,202,0.0,-999.0,98,-99.99,,,0.00,Acu-Link.com,2013-02-14 03:40:00,
2013-02-13 20:10:00,44.6,44.1,30.03,SSW,202,0.0,-999.0,98,-99.99,,,0.00,Acu-Link.com,2013-02-14 04:10:00,
2013-02-13 20:26:00,43.2,42.7,30.03,SSW,202,0.0,-999.0,98,-99.99,,,0.00,Acu-Link.com,2013-02-14 04:26:00,
2013-02-13 20:41:00,43.3,42.8,30.04,SW,225,0.0,-999.0,98,-99.99,,,0.00,Acu-Link.com,2013-02-14 04:41:00,
2013-02-13 20:56:00,42.3,41.8,30.04,South,180,0.0,-999.0,98,-99.99,,,0.00,Acu-Link.com,2013-02-14 04:56:00,
2013-02-13 21:11:00,41.9,41.4,30.05,South,180,0.0,-999.0,98,-99.99,,,0.00,Acu-Link.com,2013-02-14 05:11:00,
2013-02-13 21:26:00,41.2,40.7,30.03,SSW,202,0.0,-999.0,98,-99.99,,,0.00,Acu-Link.com,2013-02-14 05:26:00,
2013-02-13 21:41:00,40.6,40.1,30.03,SSW,202,0.0,-999.0,98,-99.99,,,0.00,Acu-Link.com,2013-02-14 05:41:00,
2013-02-13 21:56:00,40.5,40.0,30.03,SW,225,0.0,-999.0,98,-99.99,,,0.00,Acu-Link.com,2013-02-14 05:56:00,
2013-02-13 22:12:00,39.9,39.4,30.04,SW,225,0.0,-999.0,98,-99.99,,,0.00,Acu-Link.com,2013-02-14 06:12:00,
2013-02-13 22:27:00,39.7,39.2,30.04,NNE,22,0.0,-999.0,98,-99.99,,,0.00,Acu-Link.com,2013-02-14 06:27:00,
2013-02-13 22:42:00,39.4,38.9,30.04,SSW,202,0.0,-999.0,98,-99.99,,,0.00,Acu-Link.com,2013-02-14 06:42:00,
2013-02-13 22:57:00,38.8,38.3,30.05,SSW,202,0.0,-999.0,98,-99.99,,,0.00,Acu-Link.com,2013-02-14 06:57:00,
2013-02-13 23:12:00,37.9,37.4,30.05,WNW,292,0.0,-999.0,98,-99.99,,,0.00,Acu-Link.com,2013-02-14 07:12:00,
2013-02-13 23:27:00,37.4,36.9,30.05,ESE,112,0.0,-999.0,98,-99.99,,,0.00,Acu-Link.com,2013-02-14 07:27:00,
2013-02-13 23:42:00,37.6,37.1,30.05,SSE,157,0.0,-999.0,98,-99.99,,,0.00,Acu-Link.com,2013-02-14 07:42:00,
2013-02-13 23:57:00,37.2,36.7,30.05,ESE,112,0.0,-999.0,98,-99.99,,,0.00,Acu-Link.com,2013-02-14 07:57:00,